Time;durP1;ratioP1;P1;durP2;ratioP2;P2;SDS_P1;SDS_P2;PMS_P1;PMS_P2;Temp;Humidity;BMP_temperature;BMP_pressure;BME280_temperature;BME280_humidity;BME280_pressure;Samples;Min_cycle;Max_cycle;Signal;HPM_P1;HPM_P2
2021/11/25 00:02:42;;;;;;;94.30;62.78;;;2.70;99.90;;;;;;5092840;28;20198;-86
2021/11/25 00:05:52;;;;;;;102.28;77.05;;;2.70;99.90;;;;;;5101586;28;20225;-86
2021/11/25 00:08:41;;;;;;;93.80;65.80;;;2.70;99.90;;;;;;5070488;28;20178;-86
2021/11/25 00:11:39;;;;;;;104.55;83.00;;;2.70;99.90;;;;;;5081675;28;20635;-86
2021/11/25 00:14:08;;;;;;;108.97;87.88;;;2.70;99.90;;;;;;5100691;28;20156;-86
2021/11/25 00:16:34;;;;;;;97.00;78.30;;;2.80;99.90;;;;;;5100605;28;20241;-86
2021/11/25 00:19:15;;;;;;;95.45;70.82;;;2.80;99.90;;;;;;5100918;28;20179;-86
2021/11/25 00:22:02;;;;;;;104.95;83.75;;;2.90;99.90;;;;;;5100088;28;20716;-86
2021/11/25 00:24:47;;;;;;;104.65;84.00;;;2.90;99.90;;;;;;5083376;28;20167;-86
2021/11/25 00:27:39;;;;;;;98.97;81.05;;;2.80;99.90;;;;;;5082926;28;20167;-86
2021/11/25 00:30:45;;;;;;;99.53;78.65;;;2.90;99.90;;;;;;5099481;28;20587;-86
2021/11/25 00:33:13;;;;;;;103.43;77.22;;;2.90;99.90;;;;;;5076939;28;20175;-86
2021/11/25 00:36:14;;;;;;;;;;;;;;;;;;;;;
2021/11/25 00:42:42;;;;;;;;;;;;;;;;;;;;;
2021/11/25 00:45:16;;;;;;;96.20;67.97;;;2.70;99.90;;;;;;5076863;28;20653;-86
2021/11/25 00:47:43;;;;;;;101.72;84.88;;;2.70;99.90;;;;;;5098365;28;20198;-86
2021/11/25 00:53:41;;;;;;;94.78;65.65;;;2.80;99.90;;;;;;5111174;28;20224;-86
2021/11/25 00:56:13;;;;;;;112.75;99.65;;;2.80;99.90;;;;;;5121426;28;20170;-86
2021/11/25 00:58:49;;;;;;;108.82;90.38;;;2.80;99.90;;;;;;5103154;28;20209;-86
2021/11/25 01:01:15;;;;;;;118.68;106.32;;;2.80;99.90;;;;;;5102418;28;20198;-86
2021/11/25 01:03:44;;;;;;;113.18;101.15;;;2.90;99.90;;;;;;5103062;28;20202;-86
2021/11/25 01:06:13;;;;;;;114.05;100.43;;;2.90;99.90;;;;;;5121024;28;20187;-86
2021/11/25 01:11:46;;;;;;;101.38;88.28;;;2.90;99.90;;;;;;5103977;28;20530;-86
2021/11/25 01:14:48;;;;;;;105.05;93.68;;;2.90;99.90;;;;;;5120337;28;20496;-86
2021/11/25 01:17:15;;;;;;;111.10;99.75;;;2.90;99.90;;;;;;5100627;28;20170;-86
2021/11/25 01:20:27;;;;;;;98.07;72.22;;;2.90;99.90;;;;;;5101679;28;20243;-86
2021/11/25 01:23:13;;;;;;;103.50;91.43;;;3.00;99.90;;;;;;5099835;28;20209;-86
2021/11/25 01:25:56;;;;;;;120.70;108.13;;;3.00;99.90;;;;;;5101092;28;20232;-86
2021/11/25 01:28:30;;;;;;;99.32;82.78;;;3.10;99.90;;;;;;5101755;28;20158;-86
2021/11/25 01:31:14;;;;;;;108.32;96.72;;;3.20;99.90;;;;;;5102217;28;20178;-86
2021/11/25 01:33:56;;;;;;;100.45;87.88;;;3.10;99.90;;;;;;5101542;28;20190;-86
2021/11/25 01:36:37;;;;;;;105.57;88.32;;;3.00;99.90;;;;;;5083786;28;20202;-86
2021/11/25 01:39:08;;;;;;;105.55;93.97;;;2.80;99.90;;;;;;5101527;28;20250;-86
2021/11/25 01:41:41;;;;;;;98.90;86.30;;;2.80;1.00;;;;;;5120123;28;20610;-86
2021/11/25 01:44:21;;;;;;;96.75;71.47;;;2.80;99.90;;;;;;5101723;28;20220;-86
2021/11/25 01:47:02;;;;;;;94.07;54.35;;;2.70;1.00;;;;;;5119385;28;20174;-86
2021/11/25 01:49:28;;;;;;;89.90;54.05;;;2.50;99.90;;;;;;5186690;22;22752;-83
2021/11/25 01:51:54;;;;;;;88.47;52.07;;;2.40;99.90;;;;;;5120050;28;20200;-83
2021/11/25 01:54:19;;;;;;;93.67;60.00;;;2.40;1.00;;;;;;5120020;28;20396;-83
2021/11/25 01:56:45;;;;;;;90.47;53.30;;;2.30;99.90;;;;;;5120023;28;20575;-83
2021/11/25 01:59:11;;;;;;;87.47;46.50;;;2.30;99.90;;;;;;5126941;27;20189;-83
2021/11/25 02:01:37;;;;;;;92.93;61.50;;;2.20;99.90;;;;;;5139801;27;20387;-83
2021/11/25 02:04:05;;;;;;;94.90;62.57;;;2.20;99.90;;;;;;5140152;27;20597;-83
2021/11/25 02:06:30;;;;;;;100.35;73.75;;;2.10;99.90;;;;;;5140335;27;20447;-83
2021/11/25 02:08:56;;;;;;;100.03;71.07;;;2.00;99.90;;;;;;5138774;27;20574;-84
2021/11/25 02:11:22;;;;;;;103.40;80.73;;;2.10;1.00;;;;;;5139469;27;20399;-84
2021/11/25 02:13:48;;;;;;;103.57;81.77;;;2.10;37.20;;;;;;5138301;27;20165;-84
2021/11/25 02:16:14;;;;;;;93.97;70.20;;;2.10;99.90;;;;;;5138079;27;20416;-83
2021/11/25 02:18:39;;;;;;;101.20;83.50;;;2.10;1.00;;;;;;5138209;27;20165;-83
2021/11/25 02:21:05;;;;;;;111.17;99.17;;;2.10;16.50;;;;;;5138400;27;20189;-84
2021/11/25 02:23:31;;;;;;;105.03;91.00;;;2.10;99.90;;;;;;5137982;27;20165;-83
2021/11/25 02:25:58;;;;;;;96.87;74.03;;;2.10;99.90;;;;;;5139627;27;20279;-83
2021/11/25 02:28:31;;;;;;;100.70;87.47;;;2.20;99.90;;;;;;5137581;27;20410;-83
2021/11/25 02:30:57;;;;;;;106.30;80.78;;;2.20;99.90;;;;;;5139570;27;20154;-84
2021/11/25 02:33:23;;;;;;;104.83;88.90;;;2.40;99.90;;;;;;5138031;27;20162;-83
2021/11/25 02:35:48;;;;;;;110.83;98.70;;;2.40;99.90;;;;;;5137129;27;20178;-84
2021/11/25 02:38:15;;;;;;;101.93;82.97;;;2.40;99.90;;;;;;5137307;27;20170;-83
2021/11/25 02:40:48;;;;;;;107.15;95.07;;;2.50;99.90;;;;;;5138547;27;20425;-83
2021/11/25 02:43:17;;;;;;;113.43;99.82;;;2.50;99.90;;;;;;5137461;27;20166;-84
2021/11/25 02:45:55;;;;;;;131.30;118.93;;;2.50;99.90;;;;;;5138151;27;20196;-83
2021/11/25 02:48:28;;;;;;;124.93;111.90;;;2.60;99.90;;;;;;5136936;28;20533;-83
2021/11/25 02:50:55;;;;;;;122.65;110.65;;;2.60;99.90;;;;;;5137683;28;20181;-83
2021/11/25 02:53:24;;;;;;;107.15;95.40;;;2.60;99.90;;;;;;5138443;28;20218;-83
2021/11/25 02:55:53;;;;;;;109.35;97.53;;;2.60;99.90;;;;;;5139107;28;20278;-83
2021/11/25 02:58:19;;;;;;;120.80;108.25;;;2.60;99.90;;;;;;5138011;28;20154;-83
2021/11/25 03:00:46;;;;;;;113.93;102.20;;;2.70;99.90;;;;;;5138062;28;20265;-83
2021/11/25 03:03:15;;;;;;;104.88;93.28;;;2.80;99.90;;;;;;5137987;28;20187;-83
2021/11/25 03:05:43;;;;;;;105.07;87.25;;;2.80;99.90;;;;;;5136687;28;20197;-83
2021/11/25 03:08:11;;;;;;;116.50;104.43;;;2.80;99.90;;;;;;5138128;28;20150;-83
2021/11/25 03:10:39;;;;;;;111.65;99.72;;;2.90;99.90;;;;;;5137732;28;20218;-83
2021/11/25 03:13:07;;;;;;;108.60;94.43;;;2.80;99.90;;;;;;5136362;28;20164;-83
2021/11/25 03:15:35;;;;;;;118.18;105.90;;;2.80;99.90;;;;;;5138666;28;20253;-83
2021/11/25 03:18:04;;;;;;;118.20;106.05;;;2.80;99.90;;;;;;5138250;28;20173;-83
2021/11/25 03:20:30;;;;;;;122.70;110.07;;;2.90;99.90;;;;;;5138275;28;20188;-83
2021/11/25 03:22:56;;;;;;;121.83;109.23;;;2.80;99.90;;;;;;5142598;28;20229;-83
2021/11/25 03:25:22;;;;;;;115.50;103.40;;;2.80;99.90;;;;;;5137264;28;20249;-83
2021/11/25 03:27:50;;;;;;;126.50;113.95;;;2.80;99.90;;;;;;5136065;28;20411;-83
2021/11/25 03:30:16;;;;;;;111.95;100.15;;;2.90;99.90;;;;;;5137956;28;20178;-83
2021/11/25 03:32:45;;;;;;;126.85;114.30;;;3.00;99.90;;;;;;5137090;28;20154;-83
2021/11/25 03:35:11;;;;;;;110.57;98.93;;;3.00;99.90;;;;;;5136535;28;20519;-83
2021/11/25 03:37:37;;;;;;;111.53;99.78;;;3.00;99.90;;;;;;5137282;28;20166;-83
2021/11/25 03:40:06;;;;;;;121.00;108.68;;;3.00;99.90;;;;;;5135697;28;20711;-83
2021/11/25 03:42:32;;;;;;;118.93;105.35;;;2.90;99.90;;;;;;5137349;28;20165;-84
2021/11/25 03:44:58;;;;;;;113.05;101.15;;;2.80;99.90;;;;;;5137712;28;20198;-84
2021/11/25 03:47:24;;;;;;;115.90;103.80;;;2.80;99.90;;;;;;5136562;28;20173;-83
2021/11/25 03:49:49;;;;;;;114.83;100.37;;;2.80;99.90;;;;;;5137145;28;20203;-83
2021/11/25 03:52:15;;;;;;;108.87;97.20;;;2.90;99.90;;;;;;5136510;28;20400;-83
2021/11/25 03:54:41;;;;;;;110.90;99.13;;;2.90;99.90;;;;;;5137532;27;20170;-83
2021/11/25 03:57:08;;;;;;;129.73;117.40;;;3.00;99.90;;;;;;5140131;27;20407;-83
2021/11/25 03:59:34;;;;;;;126.53;113.60;;;2.90;99.90;;;;;;5139738;27;20466;-83
2021/11/25 04:02:00;;;;;;;121.53;109.33;;;3.00;99.90;;;;;;5140998;27;20162;-83
2021/11/25 04:04:28;;;;;;;117.33;105.50;;;2.90;99.90;;;;;;5141421;27;20177;-83
2021/11/25 04:06:54;;;;;;;130.63;118.20;;;3.00;99.90;;;;;;5139710;27;20411;-83
2021/11/25 04:09:20;;;;;;;140.93;128.20;;;2.90;99.90;;;;;;5139784;27;20269;-83
2021/11/25 04:11:46;;;;;;;136.70;123.93;;;3.00;99.90;;;;;;5141410;27;20177;-83
2021/11/25 04:14:12;;;;;;;136.80;124.20;;;3.00;99.90;;;;;;5139132;27;20240;-83
2021/11/25 04:16:37;;;;;;;134.83;122.00;;;3.00;99.90;;;;;;5140778;27;20170;-83
2021/11/25 04:19:06;;;;;;;144.03;131.40;;;3.00;99.90;;;;;;5140911;27;20552;-83
2021/11/25 04:21:32;;;;;;;135.63;123.07;;;3.00;99.90;;;;;;5139558;27;20166;-83
2021/11/25 04:23:57;;;;;;;137.17;124.60;;;3.10;99.90;;;;;;5140797;27;20208;-83
2021/11/25 04:26:23;;;;;;;134.33;122.03;;;3.20;99.90;;;;;;5140516;27;20197;-83
2021/11/25 04:28:52;;;;;;;126.40;113.87;;;3.30;99.90;;;;;;5139291;27;20181;-83
2021/11/25 04:36:54;;;;;;;125.65;112.90;;;3.30;99.90;;;;;;5110926;27;20170;-83
2021/11/25 04:39:19;;;;;;;118.87;106.57;;;3.30;99.90;;;;;;5140162;27;20553;-83
2021/11/25 04:41:46;;;;;;;116.87;102.00;;;3.30;99.90;;;;;;5140764;27;20245;-83
2021/11/25 04:44:12;;;;;;;126.60;114.30;;;3.30;99.90;;;;;;5138744;27;20173;-83
2021/11/25 04:46:37;;;;;;;109.50;97.87;;;3.40;99.90;;;;;;5138478;27;20197;-84
2021/11/25 04:49:05;;;;;;;111.33;98.57;;;3.40;99.90;;;;;;5140093;27;20230;-83
2021/11/25 04:51:31;;;;;;;115.32;103.10;;;3.40;99.90;;;;;;5138342;27;20173;-84
2021/11/25 04:53:59;;;;;;;110.70;97.85;;;3.50;99.90;;;;;;5138829;27;20165;-83
2021/11/25 04:56:25;;;;;;;109.40;94.30;;;3.40;99.90;;;;;;5143693;27;20166;-83
2021/11/25 04:58:51;;;;;;;128.57;116.17;;;3.50;99.90;;;;;;5139305;27;20185;-83
2021/11/25 05:01:19;;;;;;;128.87;116.07;;;3.40;99.90;;;;;;5139163;27;20166;-84
2021/11/25 05:03:45;;;;;;;120.65;108.50;;;3.40;99.90;;;;;;5139793;27;20532;-84
2021/11/25 05:06:11;;;;;;;113.60;101.23;;;3.50;99.90;;;;;;5138960;27;20186;-83
2021/11/25 05:08:37;;;;;;;137.87;124.37;;;3.50;99.90;;;;;;5137994;27;20162;-84
2021/11/25 05:11:02;;;;;;;123.60;111.10;;;3.50;99.90;;;;;;5138600;27;20533;-84
2021/11/25 05:13:28;;;;;;;115.30;103.30;;;3.50;99.90;;;;;;5139808;27;20395;-83
2021/11/25 05:15:54;;;;;;;124.13;111.83;;;3.50;99.90;;;;;;5138415;27;20438;-83
2021/11/25 05:18:19;;;;;;;123.17;110.57;;;3.40;99.90;;;;;;5137831;27;20173;-83
2021/11/25 05:20:45;;;;;;;126.20;113.37;;;3.40;99.90;;;;;;5139033;27;20193;-84
2021/11/25 05:23:12;;;;;;;117.97;105.70;;;3.40;99.90;;;;;;5141394;27;20201;-83
2021/11/25 05:25:38;;;;;;;123.53;111.20;;;3.40;99.90;;;;;;5141627;27;20265;-84
2021/11/25 05:28:04;;;;;;;118.15;105.95;;;3.40;99.90;;;;;;5160087;27;20149;-84
2021/11/25 05:30:31;;;;;;;116.77;104.20;;;3.40;99.90;;;;;;5160236;27;20173;-83
2021/11/25 05:33:03;;;;;;;118.40;106.20;;;3.40;99.90;;;;;;5160588;27;20481;-83
2021/11/25 05:35:29;;;;;;;116.88;104.93;;;3.50;99.90;;;;;;5141569;27;20190;-83
2021/11/25 05:37:56;;;;;;;130.02;117.75;;;3.50;99.90;;;;;;5141403;27;20260;-83
2021/11/25 05:40:22;;;;;;;111.57;99.55;;;3.50;99.90;;;;;;5159314;27;20210;-84
2021/11/25 05:42:48;;;;;;;105.65;91.32;;;3.50;99.90;;;;;;5140902;27;20179;-83
2021/11/25 05:45:18;;;;;;;117.20;105.15;;;3.50;99.90;;;;;;5159590;27;20574;-84
2021/11/25 05:47:46;;;;;;;112.07;99.72;;;3.50;99.90;;;;;;5141248;27;20153;-83
2021/11/25 05:50:18;;;;;;;110.28;98.50;;;3.50;99.90;;;;;;5159187;27;20196;-84
2021/11/25 05:52:46;;;;;;;115.75;102.18;;;3.50;99.90;;;;;;5159293;27;20505;-84
2021/11/25 05:55:12;;;;;;;124.38;111.80;;;3.40;99.90;;;;;;5140255;27;20172;-83
2021/11/25 05:57:38;;;;;;;124.07;111.63;;;3.40;99.90;;;;;;5140725;27;20659;-83
2021/11/25 06:00:06;;;;;;;121.68;109.03;;;3.40;99.90;;;;;;5140579;27;20844;-84
2021/11/25 06:02:34;;;;;;;120.43;108.13;;;3.40;99.90;;;;;;5159257;27;20169;-83
2021/11/25 06:05:00;;;;;;;122.30;109.57;;;3.40;99.90;;;;;;5140791;27;20189;-85
2021/11/25 06:07:26;;;;;;;122.23;109.57;;;3.40;99.90;;;;;;5139961;27;20233;-85
2021/11/25 06:09:53;;;;;;;117.07;104.83;;;3.50;99.90;;;;;;5199314;22;20233;-83
2021/11/25 06:12:19;;;;;;;138.80;123.97;;;3.50;99.90;;;;;;5139593;27;20210;-82
2021/11/25 06:14:51;;;;;;;118.07;105.77;;;3.50;99.90;;;;;;5120900;27;20574;-84
2021/11/25 06:17:20;;;;;;;127.60;114.65;;;3.60;99.90;;;;;;5119717;27;20403;-85
2021/11/25 06:19:54;;;;;;;116.63;101.18;;;3.50;99.90;;;;;;5150750;27;20189;-82
2021/11/25 06:22:21;;;;;;;115.07;103.05;;;3.60;99.90;;;;;;5159727;27;20145;-81
2021/11/25 06:24:46;;;;;;;106.80;88.03;;;3.60;99.90;;;;;;5159201;27;20216;-83
2021/11/25 06:27:24;;;;;;;107.13;93.30;;;3.60;99.90;;;;;;5141162;27;20189;-84
2021/11/25 06:29:50;;;;;;;119.05;106.10;;;3.60;99.90;;;;;;5162752;27;20256;-82
2021/11/25 06:32:19;;;;;;;109.33;90.77;;;3.60;99.90;;;;;;5159684;27;20192;-83
2021/11/25 06:34:47;;;;;;;121.35;108.22;;;3.70;99.90;;;;;;5140164;27;20667;-84
2021/11/25 06:37:18;;;;;;;116.03;101.45;;;3.60;99.90;;;;;;5159173;27;20695;-84
2021/11/25 06:39:43;;;;;;;115.30;102.78;;;3.60;99.90;;;;;;5159390;27;20180;-84
2021/11/25 06:42:12;;;;;;;106.50;85.10;;;3.60;99.90;;;;;;5158865;27;20172;-84
2021/11/25 06:44:38;;;;;;;118.28;104.78;;;3.60;99.90;;;;;;5159070;27;20675;-83
2021/11/25 06:47:04;;;;;;;105.23;84.13;;;3.60;99.90;;;;;;5140342;27;20191;-84
2021/11/25 06:49:29;;;;;;;107.57;82.20;;;3.60;99.90;;;;;;5158537;27;20425;-85
2021/11/25 06:51:55;;;;;;;102.97;77.67;;;3.50;99.90;;;;;;5140815;27;20165;-83
2021/11/25 06:54:24;;;;;;;100.90;73.87;;;3.50;99.90;;;;;;5160448;27;20153;-85
2021/11/25 06:56:49;;;;;;;103.35;76.93;;;3.60;99.90;;;;;;5141745;27;20161;-84
2021/11/25 06:59:15;;;;;;;104.77;78.10;;;3.50;99.90;;;;;;5141707;27;20188;-84
2021/11/25 07:01:47;;;;;;;103.35;75.13;;;3.60;99.90;;;;;;5142142;27;20800;-84
2021/11/25 07:04:20;;;;;;;112.93;90.03;;;3.60;99.90;;;;;;5159999;27;20504;-84
2021/11/25 07:06:59;;;;;;;107.22;86.40;;;3.50;99.90;;;;;;5159339;27;20593;-84
2021/11/25 07:09:28;;;;;;;98.28;66.13;;;3.50;99.90;;;;;;5140431;27;20220;-84
2021/11/25 07:11:53;;;;;;;103.60;73.82;;;3.50;99.90;;;;;;5137216;28;20663;-85
2021/11/25 07:14:19;;;;;;;105.57;80.63;;;3.60;99.90;;;;;;5154809;27;20157;-84
2021/11/25 07:16:45;;;;;;;102.73;76.50;;;3.50;99.90;;;;;;5141252;27;20179;-84
2021/11/25 07:19:11;;;;;;;105.80;86.50;;;3.50;99.90;;;;;;5140854;27;20490;-84
2021/11/25 07:21:36;;;;;;;101.53;81.10;;;3.50;99.90;;;;;;5159607;27;20191;-83
2021/11/25 07:24:02;;;;;;;102.17;77.73;;;3.50;99.90;;;;;;5160003;27;20193;-84
2021/11/25 07:26:28;;;;;;;108.10;89.03;;;3.40;99.90;;;;;;5141735;27;20574;-84
2021/11/25 07:28:57;;;;;;;103.60;75.33;;;3.40;99.90;;;;;;5159811;27;20429;-84
2021/11/25 07:31:29;;;;;;;106.78;81.88;;;3.30;99.90;;;;;;5163107;27;20165;-84
2021/11/25 07:33:57;;;;;;;109.28;73.30;;;3.30;99.90;;;;;;5164730;27;20142;-84
2021/11/25 07:36:24;;;;;;;102.57;66.95;;;3.30;99.90;;;;;;5165455;27;20527;-84
2021/11/25 07:38:50;;;;;;;98.90;62.22;;;3.20;99.90;;;;;;5163929;27;20177;-84
2021/11/25 07:41:16;;;;;;;99.30;64.25;;;3.20;99.90;;;;;;5164019;27;20272;-84
2021/11/25 07:43:42;;;;;;;102.20;63.03;;;3.10;99.90;;;;;;5145452;27;20189;-84
2021/11/25 07:46:07;;;;;;;96.33;51.07;;;3.00;99.90;;;;;;5163748;27;20180;-83
2021/11/25 07:48:33;;;;;;;93.87;44.67;;;3.00;99.90;;;;;;5164107;27;20153;-84
2021/11/25 07:51:25;;;;;;;;;;;;;;;;;;;;;
2021/11/25 07:54:40;;;;;;;89.35;37.15;;;3.00;99.90;;;;;;5143320;27;20256;-87
2021/11/25 08:04:42;;;;;;;90.68;37.20;;;2.90;99.90;;;;;;5080037;28;20180;-87
2021/11/25 08:07:54;;;;;;;105.32;64.75;;;3.00;99.90;;;;;;5059661;28;20242;-87
2021/11/25 08:13:45;;;;;;;112.47;79.72;;;3.10;99.90;;;;;;5039622;28;20177;-87
2021/11/25 08:30:55;;;;;;;;;;;;;;;;;;;;;
2021/11/25 08:34:05;;;;;;;112.00;79.28;;;3.50;99.90;;;;;;4937525;29;20676;-87
2021/11/25 08:40:20;;;;;;;100.03;70.97;;;3.60;99.90;;;;;;4973618;28;20232;-87
2021/11/25 08:43:05;;;;;;;122.53;106.80;;;3.70;99.90;;;;;;5036488;28;20569;-87
2021/11/25 08:45:43;;;;;;;110.55;91.47;;;3.70;99.90;;;;;;5037946;28;20205;-87
2021/11/25 08:48:43;;;;;;;105.85;84.97;;;3.90;99.90;;;;;;5122038;27;20261;-87
2021/11/25 08:51:19;;;;;;;105.43;65.38;;;4.00;99.90;;;;;;5113075;27;20237;-87
2021/11/25 08:54:21;;;;;;;103.32;54.15;;;4.00;99.90;;;;;;5143198;27;20221;-87
2021/11/25 08:57:19;;;;;;;92.65;32.85;;;4.10;99.90;;;;;;5139972;27;20179;-86
2021/11/25 09:03:22;;;;;;;90.50;26.20;;;4.10;99.90;;;;;;5115068;27;20173;-87
2021/11/25 09:05:56;;;;;;;87.35;27.77;;;3.90;99.90;;;;;;5157916;27;20227;-85
2021/11/25 09:08:32;;;;;;;89.80;28.48;;;3.90;99.90;;;;;;5158181;27;20157;-85
2021/11/25 09:11:06;;;;;;;95.88;35.92;;;3.90;99.90;;;;;;5157873;27;20165;-85
2021/11/25 09:13:45;;;;;;;87.70;33.35;;;3.80;99.90;;;;;;5139294;27;20168;-86
2021/11/25 09:16:11;;;;;;;90.75;34.78;;;3.80;99.90;;;;;;5161570;27;20148;-86
2021/11/25 09:18:40;;;;;;;95.30;34.83;;;3.90;99.90;;;;;;5160503;27;20157;-86
2021/11/25 09:21:10;;;;;;;95.45;34.40;;;3.90;99.90;;;;;;5161285;27;20165;-85
2021/11/25 09:23:42;;;;;;;90.43;26.40;;;4.10;99.90;;;;;;5162062;27;20180;-86
2021/11/25 09:26:22;;;;;;;95.10;27.17;;;4.20;99.90;;;;;;5160395;27;20189;-86
2021/11/25 09:28:59;;;;;;;89.88;30.83;;;4.20;99.90;;;;;;5141674;27;20208;-87
2021/11/25 09:31:37;;;;;;;89.78;30.60;;;4.20;99.90;;;;;;5141802;27;20707;-87
2021/11/25 09:34:09;;;;;;;89.90;28.70;;;4.20;99.90;;;;;;5141365;27;20158;-87
2021/11/25 09:36:40;;;;;;;94.40;26.60;;;4.30;99.90;;;;;;5141812;27;20196;-87
2021/11/25 09:39:25;;;;;;;92.22;29.77;;;4.40;99.90;;;;;;5141416;27;20214;-86
2021/11/25 09:42:06;;;;;;;87.32;25.77;;;4.50;99.90;;;;;;5141679;27;20180;-86
2021/11/25 09:45:14;;;;;;;87.82;25.85;;;4.40;99.90;;;;;;5159717;27;20161;-86
2021/11/25 09:48:01;;;;;;;83.03;22.70;;;4.50;99.90;;;;;;5160458;27;20217;-87
2021/11/25 09:50:49;;;;;;;89.93;27.48;;;4.50;99.90;;;;;;5115950;28;20210;-87
2021/11/25 09:53:50;;;;;;;84.57;26.15;;;4.70;99.90;;;;;;5115691;28;20158;-87
2021/11/25 09:56:54;;;;;;;87.85;26.38;;;4.70;99.90;;;;;;5141074;27;20208;-87
2021/11/25 10:10:55;;;;;;;92.97;33.83;;;5.10;99.90;;;;;;4996279;28;20191;-86
2021/11/25 10:13:32;;;;;;;93.65;34.30;;;5.30;99.90;;;;;;4995970;28;20198;-86
2021/11/25 10:16:06;;;;;;;96.50;43.58;;;5.40;99.90;;;;;;4997584;28;20221;-87
2021/11/25 10:18:47;;;;;;;100.60;42.72;;;5.60;99.90;;;;;;4997043;28;20674;-87
2021/11/25 10:21:27;;;;;;;95.60;34.47;;;5.60;99.90;;;;;;5054278;28;20595;-87
2021/11/25 10:23:56;;;;;;;86.60;21.40;;;5.70;99.90;;;;;;5059714;28;20668;-87
2021/11/25 10:27:02;;;;;;;95.75;21.65;;;5.70;99.90;;;;;;5078125;28;20252;-87
2021/11/25 10:29:47;;;;;;;91.60;20.25;;;5.70;99.90;;;;;;5037817;28;20286;-87
2021/11/25 10:32:31;;;;;;;86.95;20.08;;;5.70;99.90;;;;;;5057951;28;20176;-87
2021/11/25 10:38:44;;;;;;;89.18;19.25;;;5.70;99.90;;;;;;4974014;28;20186;-85
2021/11/25 10:41:32;;;;;;;88.07;21.83;;;5.80;99.90;;;;;;5014857;28;20193;-87
2021/11/25 10:44:37;;;;;;;90.60;21.48;;;5.80;99.90;;;;;;5073683;28;20225;-85
2021/11/25 10:47:50;;;;;;;87.70;18.85;;;5.80;99.90;;;;;;5068119;28;20194;-86
2021/11/25 10:51:58;;;;;;;93.38;18.65;;;5.70;99.90;;;;;;5074120;28;20241;-86
2021/11/25 10:54:42;;;;;;;92.70;18.98;;;5.80;99.90;;;;;;5054889;28;20491;-87
2021/11/25 10:57:51;;;;;;;85.28;17.58;;;5.70;99.90;;;;;;5059077;28;20176;-84
2021/11/25 11:00:43;;;;;;;84.45;18.23;;;5.70;99.90;;;;;;5077035;28;20194;-86
2021/11/25 11:03:19;;;;;;;92.47;18.52;;;5.80;99.90;;;;;;5076846;28;20180;-86
2021/11/25 11:05:56;;;;;;;89.25;19.70;;;5.90;99.90;;;;;;5081769;28;20202;-86
2021/11/25 11:08:25;;;;;;;89.53;19.38;;;6.00;99.90;;;;;;5064063;28;20183;-85
2021/11/25 11:11:06;;;;;;;99.38;23.75;;;6.00;99.90;;;;;;5080056;28;20646;-86
2021/11/25 11:14:11;;;;;;;87.03;21.83;;;6.00;99.90;;;;;;5080715;28;20155;-86
2021/11/25 11:17:21;;;;;;;89.47;21.75;;;6.00;99.90;;;;;;5060657;28;20175;-86
2021/11/25 11:20:11;;;;;;;89.72;24.63;;;5.90;99.90;;;;;;5159712;22;20271;-85
2021/11/25 11:22:37;;;;;;;96.13;27.63;;;6.00;99.90;;;;;;5120722;27;20170;-86
2021/11/25 11:25:19;;;;;;;90.32;28.08;;;6.00;99.90;;;;;;5122238;27;20189;-86
2021/11/25 11:28:38;;;;;;;87.88;27.13;;;6.10;99.90;;;;;;5142359;27;20217;-85
2021/11/25 11:31:10;;;;;;;93.20;27.02;;;6.10;99.90;;;;;;5038011;28;20173;-86
2021/11/25 11:33:40;;;;;;;97.05;28.17;;;6.10;99.90;;;;;;5102540;28;20574;-86
2021/11/25 11:36:06;;;;;;;97.72;29.13;;;6.10;99.90;;;;;;5120737;28;20185;-86
2021/11/25 11:38:35;;;;;;;94.75;29.23;;;6.10;99.90;;;;;;5102544;28;20568;-86
2021/11/25 11:41:02;;;;;;;93.20;24.88;;;6.10;99.90;;;;;;5120675;28;20304;-87
2021/11/25 11:43:29;;;;;;;93.72;24.20;;;6.20;99.90;;;;;;5102307;28;20711;-86
2021/11/25 11:45:58;;;;;;;98.65;25.75;;;6.20;99.90;;;;;;5119751;28;20187;-86
2021/11/25 11:48:25;;;;;;;92.35;25.90;;;6.20;99.90;;;;;;5119944;28;20208;-87
2021/11/25 11:51:14;;;;;;;95.47;28.70;;;6.20;99.90;;;;;;5101868;28;20157;-86
2021/11/25 11:53:43;;;;;;;96.32;29.55;;;6.30;99.90;;;;;;5101288;28;20162;-86
2021/11/25 11:56:13;;;;;;;93.80;26.67;;;6.30;99.90;;;;;;5119911;28;20171;-87
2021/11/25 11:58:53;;;;;;;94.72;28.88;;;6.30;99.90;;;;;;5102434;28;20163;-86
2021/11/25 12:01:25;;;;;;;88.80;24.17;;;6.30;99.90;;;;;;5102226;28;20640;-86
2021/11/25 12:04:05;;;;;;;96.78;25.60;;;6.30;99.90;;;;;;5120303;28;20151;-86
2021/11/25 12:06:37;;;;;;;90.00;23.80;;;6.30;99.90;;;;;;5120305;28;20269;-86
2021/11/25 12:09:14;;;;;;;90.55;23.52;;;6.20;99.90;;;;;;5102485;28;20193;-87
2021/11/25 12:11:51;;;;;;;88.32;25.45;;;6.20;99.90;;;;;;5120448;28;20164;-87
2021/11/25 12:14:18;;;;;;;89.10;26.23;;;6.20;99.90;;;;;;5102040;28;20654;-86
2021/11/25 12:17:16;;;;;;;96.85;32.45;;;6.20;99.90;;;;;;5120155;28;20166;-86
2021/11/25 12:20:08;;;;;;;89.63;25.15;;;6.30;99.90;;;;;;5117228;28;20217;-86
2021/11/25 12:22:49;;;;;;;95.13;23.77;;;6.40;99.90;;;;;;5101061;28;20178;-86
2021/11/25 12:25:40;;;;;;;98.15;22.60;;;6.50;99.90;;;;;;5101199;28;20257;-87
2021/11/25 12:28:32;;;;;;;99.22;26.55;;;6.40;99.90;;;;;;5119112;28;20663;-86
2021/11/25 12:31:30;;;;;;;103.80;29.40;;;6.40;99.90;;;;;;5120376;28;20143;-86
2021/11/25 12:33:56;;;;;;;99.85;26.63;;;6.50;99.90;;;;;;5118946;28;20529;-86
2021/11/25 12:36:36;;;;;;;93.53;24.75;;;6.50;99.90;;;;;;5101216;28;20202;-87
2021/11/25 12:39:04;;;;;;;88.95;27.90;;;6.60;99.90;;;;;;5101165;28;20190;-87
2021/11/25 12:41:33;;;;;;;95.70;28.23;;;6.60;99.90;;;;;;5118934;28;20201;-86
2021/11/25 12:44:01;;;;;;;90.43;25.08;;;6.60;99.90;;;;;;5102447;28;20521;-87
2021/11/25 12:46:27;;;;;;;85.97;22.42;;;6.70;99.90;;;;;;5103009;28;20190;-86
2021/11/25 12:48:56;;;;;;;86.70;20.10;;;6.80;99.90;;;;;;5120178;28;20223;-87
2021/11/25 12:51:29;;;;;;;88.60;21.10;;;6.90;99.90;;;;;;5119806;28;20404;-86
2021/11/25 12:54:13;;;;;;;87.18;19.65;;;6.90;99.90;;;;;;5102084;28;20614;-87
2021/11/25 12:56:42;;;;;;;86.95;18.58;;;7.00;99.90;;;;;;5101202;28;20211;-86
2021/11/25 12:59:16;;;;;;;91.65;23.55;;;7.00;99.90;;;;;;5101650;28;20190;-87
2021/11/25 13:01:43;;;;;;;91.97;26.73;;;7.00;99.90;;;;;;5120266;28;20653;-86
2021/11/25 13:04:22;;;;;;;87.95;28.08;;;7.00;99.90;;;;;;5120055;28;20162;-86
2021/11/25 13:06:51;;;;;;;89.80;33.08;;;6.90;99.90;;;;;;5101602;28;20245;-87
2021/11/25 13:09:20;;;;;;;93.00;35.15;;;6.90;99.90;;;;;;5119604;28;20578;-86
2021/11/25 13:11:47;;;;;;;91.38;33.40;;;6.90;99.90;;;;;;5119289;28;20151;-86
2021/11/25 13:14:19;;;;;;;87.28;31.50;;;7.00;99.90;;;;;;5119328;28;20193;-86
2021/11/25 13:16:58;;;;;;;91.30;29.00;;;6.90;99.90;;;;;;5118629;28;20660;-86
2021/11/25 13:19:30;;;;;;;86.82;24.02;;;6.90;99.90;;;;;;5099837;28;20611;-84
2021/11/25 13:22:25;;;;;;;83.43;18.38;;;6.90;99.90;;;;;;5117117;28;20522;-84
2021/11/25 13:24:53;;;;;;;81.07;21.27;;;6.90;99.90;;;;;;5114259;28;20534;-84
2021/11/25 13:27:22;;;;;;;86.90;23.88;;;6.90;99.90;;;;;;5116942;28;20155;-84
2021/11/25 13:30:03;;;;;;;86.47;23.15;;;6.90;99.90;;;;;;5117982;28;20211;-84
2021/11/25 13:32:35;;;;;;;86.45;20.33;;;6.90;99.90;;;;;;5099006;28;20323;-84
2021/11/25 13:35:08;;;;;;;86.93;20.95;;;6.90;99.90;;;;;;5100918;28;20173;-84
2021/11/25 13:37:52;;;;;;;89.50;25.80;;;6.90;99.90;;;;;;5100044;28;20166;-84
2021/11/25 13:40:27;;;;;;;84.88;20.58;;;6.90;99.90;;;;;;5099761;28;20197;-84
2021/11/25 13:43:05;;;;;;;86.95;21.30;;;6.70;99.90;;;;;;5099228;28;20594;-83
2021/11/25 13:45:39;;;;;;;89.00;33.75;;;6.70;99.90;;;;;;5118618;28;20633;-84
2021/11/25 13:48:05;;;;;;;86.22;21.52;;;6.70;99.90;;;;;;5118278;28;20162;-84
2021/11/25 13:50:31;;;;;;;86.57;21.90;;;6.60;99.90;;;;;;5173249;22;20218;-86
2021/11/25 13:53:04;;;;;;;86.82;22.63;;;6.60;99.90;;;;;;5100024;28;20397;-88
2021/11/25 13:55:35;;;;;;;86.72;23.98;;;6.60;99.90;;;;;;5100443;28;20188;-86
2021/11/25 13:58:08;;;;;;;89.05;24.20;;;6.60;99.90;;;;;;5099730;28;20204;-86
2021/11/25 14:00:36;;;;;;;91.25;23.92;;;6.60;99.90;;;;;;5097673;28;20183;-87
2021/11/25 14:03:11;;;;;;;88.32;24.17;;;6.60;99.90;;;;;;5097361;28;20186;-87
2021/11/25 14:05:45;;;;;;;85.80;20.35;;;6.50;99.90;;;;;;5081144;28;20182;-85
2021/11/25 14:08:20;;;;;;;87.00;25.10;;;6.60;99.90;;;;;;5098705;28;20174;-86
2021/11/25 14:11:52;;;;;;;90.28;28.13;;;6.50;99.90;;;;;;5170218;22;20234;-85
2021/11/25 14:15:14;;;;;;;90.88;26.23;;;6.50;99.90;;;;;;5098241;28;20262;-85